sensor_id;sensor_type;location;lat;lon;timestamp;P1;durP1;ratioP1;P2;durP2;ratioP2
29452;SDS011;16424;50.956;5.320;2022-08-21T00:00:57;20.02;;;7.72;;
29452;SDS011;16424;50.956;5.320;2022-08-21T00:03:24;20.02;;;6.90;;
29452;SDS011;16424;50.956;5.320;2022-08-21T00:05:50;13.75;;;6.95;;
29452;SDS011;16424;50.956;5.320;2022-08-21T00:08:17;15.43;;;7.07;;
29452;SDS011;16424;50.956;5.320;2022-08-21T00:10:44;11.98;;;6.25;;
29452;SDS011;16424;50.956;5.320;2022-08-21T00:13:11;13.15;;;7.88;;
29452;SDS011;16424;50.956;5.320;2022-08-21T00:15:39;14.38;;;7.60;;
29452;SDS011;16424;50.956;5.320;2022-08-21T00:18:07;18.25;;;6.88;;
29452;SDS011;16424;50.956;5.320;2022-08-21T00:20:36;16.33;;;7.13;;
29452;SDS011;16424;50.956;5.320;2022-08-21T00:23:03;12.05;;;6.35;;
29452;SDS011;16424;50.956;5.320;2022-08-21T00:25:29;15.82;;;6.78;;
29452;SDS011;16424;50.956;5.320;2022-08-21T00:27:56;15.32;;;6.47;;
29452;SDS011;16424;50.956;5.320;2022-08-21T00:30:23;15.15;;;6.50;;
29452;SDS011;16424;50.956;5.320;2022-08-21T00:32:51;11.02;;;6.95;;
29452;SDS011;16424;50.956;5.320;2022-08-21T00:35:20;14.35;;;6.93;;
29452;SDS011;16424;50.956;5.320;2022-08-21T00:37:48;11.30;;;6.32;;
29452;SDS011;16424;50.956;5.320;2022-08-21T00:40:16;8.50;;;5.10;;
29452;SDS011;16424;50.956;5.320;2022-08-21T00:42:44;12.23;;;6.90;;
29452;SDS011;16424;50.956;5.320;2022-08-21T00:45:10;9.75;;;5.90;;
29452;SDS011;16424;50.956;5.320;2022-08-21T00:47:36;14.98;;;6.70;;
29452;SDS011;16424;50.956;5.320;2022-08-21T00:50:04;12.18;;;5.60;;
29452;SDS011;16424;50.956;5.320;2022-08-21T00:52:32;14.65;;;6.18;;
29452;SDS011;16424;50.956;5.320;2022-08-21T00:55:00;15.52;;;5.68;;
29452;SDS011;16424;50.956;5.320;2022-08-21T00:57:30;10.38;;;5.55;;
29452;SDS011;16424;50.956;5.320;2022-08-21T01:00:03;11.48;;;5.45;;
29452;SDS011;16424;50.956;5.320;2022-08-21T01:02:31;12.07;;;5.78;;
29452;SDS011;16424;50.956;5.320;2022-08-21T01:04:56;13.68;;;5.95;;
29452;SDS011;16424;50.956;5.320;2022-08-21T01:07:22;21.35;;;6.80;;
29452;SDS011;16424;50.956;5.320;2022-08-21T01:09:48;13.73;;;5.88;;
29452;SDS011;16424;50.956;5.320;2022-08-21T01:12:14;9.73;;;5.55;;
29452;SDS011;16424;50.956;5.320;2022-08-21T01:14:40;13.82;;;6.03;;
29452;SDS011;16424;50.956;5.320;2022-08-21T01:17:11;13.15;;;5.65;;
29452;SDS011;16424;50.956;5.320;2022-08-21T01:19:39;12.00;;;5.60;;
29452;SDS011;16424;50.956;5.320;2022-08-21T01:22:05;15.25;;;5.30;;
29452;SDS011;16424;50.956;5.320;2022-08-21T01:24:31;10.68;;;6.22;;
29452;SDS011;16424;50.956;5.320;2022-08-21T01:26:58;17.48;;;5.47;;
29452;SDS011;16424;50.956;5.320;2022-08-21T01:32:02;13.80;;;5.38;;
29452;SDS011;16424;50.956;5.320;2022-08-21T01:34:32;11.60;;;5.47;;
29452;SDS011;16424;50.956;5.320;2022-08-21T01:37:00;10.32;;;4.82;;
29452;SDS011;16424;50.956;5.320;2022-08-21T01:39:27;10.35;;;5.05;;
29452;SDS011;16424;50.956;5.320;2022-08-21T01:41:53;10.98;;;4.70;;
29452;SDS011;16424;50.956;5.320;2022-08-21T01:44:22;9.52;;;5.20;;
29452;SDS011;16424;50.956;5.320;2022-08-21T01:46:49;9.55;;;4.72;;
29452;SDS011;16424;50.956;5.320;2022-08-21T01:49:16;8.50;;;5.13;;
29452;SDS011;16424;50.956;5.320;2022-08-21T01:51:42;7.75;;;4.75;;
29452;SDS011;16424;50.956;5.320;2022-08-21T01:54:08;8.27;;;4.88;;
29452;SDS011;16424;50.956;5.320;2022-08-21T01:56:41;10.45;;;5.55;;
29452;SDS011;16424;50.956;5.320;2022-08-21T01:59:10;10.65;;;4.60;;
29452;SDS011;16424;50.956;5.320;2022-08-21T02:01:36;12.90;;;5.13;;
29452;SDS011;16424;50.956;5.320;2022-08-21T02:04:04;12.13;;;4.85;;
29452;SDS011;16424;50.956;5.320;2022-08-21T02:06:32;11.15;;;4.43;;
29452;SDS011;16424;50.956;5.320;2022-08-21T02:08:58;11.18;;;5.22;;
29452;SDS011;16424;50.956;5.320;2022-08-21T02:11:23;11.23;;;4.50;;
29452;SDS011;16424;50.956;5.320;2022-08-21T02:13:49;10.60;;;5.40;;
29452;SDS011;16424;50.956;5.320;2022-08-21T02:16:15;10.23;;;4.68;;
29452;SDS011;16424;50.956;5.320;2022-08-21T02:18:42;10.85;;;4.85;;
29452;SDS011;16424;50.956;5.320;2022-08-21T02:21:08;9.10;;;4.65;;
29452;SDS011;16424;50.956;5.320;2022-08-21T02:23:34;7.53;;;4.30;;
29452;SDS011;16424;50.956;5.320;2022-08-21T02:26:01;8.95;;;4.97;;
29452;SDS011;16424;50.956;5.320;2022-08-21T02:28:28;12.73;;;4.63;;
29452;SDS011;16424;50.956;5.320;2022-08-21T02:30:54;11.07;;;3.83;;
29452;SDS011;16424;50.956;5.320;2022-08-21T02:33:21;6.97;;;4.93;;
29452;SDS011;16424;50.956;5.320;2022-08-21T02:35:47;13.73;;;5.95;;
29452;SDS011;16424;50.956;5.320;2022-08-21T02:38:14;9.48;;;4.53;;
29452;SDS011;16424;50.956;5.320;2022-08-21T02:40:44;9.90;;;4.18;;
29452;SDS011;16424;50.956;5.320;2022-08-21T02:43:11;10.07;;;4.43;;
29452;SDS011;16424;50.956;5.320;2022-08-21T02:45:37;10.32;;;5.30;;
29452;SDS011;16424;50.956;5.320;2022-08-21T02:48:06;7.22;;;4.72;;
29452;SDS011;16424;50.956;5.320;2022-08-21T02:50:35;9.07;;;4.20;;
29452;SDS011;16424;50.956;5.320;2022-08-21T02:53:05;13.48;;;5.00;;
29452;SDS011;16424;50.956;5.320;2022-08-21T02:55:32;13.85;;;4.07;;
29452;SDS011;16424;50.956;5.320;2022-08-21T02:58:00;10.35;;;4.13;;
29452;SDS011;16424;50.956;5.320;2022-08-21T03:00:27;6.43;;;3.78;;
29452;SDS011;16424;50.956;5.320;2022-08-21T03:02:55;16.25;;;4.47;;
29452;SDS011;16424;50.956;5.320;2022-08-21T03:05:21;14.45;;;4.75;;
29452;SDS011;16424;50.956;5.320;2022-08-21T03:07:48;11.75;;;4.90;;
29452;SDS011;16424;50.956;5.320;2022-08-21T03:10:14;10.10;;;4.10;;
29452;SDS011;16424;50.956;5.320;2022-08-21T03:12:40;12.52;;;4.25;;
29452;SDS011;16424;50.956;5.320;2022-08-21T03:15:07;11.95;;;4.97;;
29452;SDS011;16424;50.956;5.320;2022-08-21T03:17:35;10.20;;;4.05;;
29452;SDS011;16424;50.956;5.320;2022-08-21T03:20:01;6.07;;;4.25;;
29452;SDS011;16424;50.956;5.320;2022-08-21T03:22:29;11.70;;;4.65;;
29452;SDS011;16424;50.956;5.320;2022-08-21T03:24:54;10.80;;;4.18;;
29452;SDS011;16424;50.956;5.320;2022-08-21T03:27:22;8.07;;;4.82;;
29452;SDS011;16424;50.956;5.320;2022-08-21T03:29:51;9.63;;;5.07;;
29452;SDS011;16424;50.956;5.320;2022-08-21T03:32:17;13.77;;;4.55;;
29452;SDS011;16424;50.956;5.320;2022-08-21T03:34:44;7.82;;;3.83;;
29452;SDS011;16424;50.956;5.320;2022-08-21T03:37:10;7.65;;;4.00;;
29452;SDS011;16424;50.956;5.320;2022-08-21T03:39:37;12.25;;;4.18;;
29452;SDS011;16424;50.956;5.320;2022-08-21T03:42:03;10.73;;;3.85;;
29452;SDS011;16424;50.956;5.320;2022-08-21T03:44:30;6.88;;;3.72;;
29452;SDS011;16424;50.956;5.320;2022-08-21T03:46:56;9.63;;;4.10;;
29452;SDS011;16424;50.956;5.320;2022-08-21T03:49:22;9.10;;;3.80;;
29452;SDS011;16424;50.956;5.320;2022-08-21T03:51:49;8.82;;;3.78;;
29452;SDS011;16424;50.956;5.320;2022-08-21T03:54:15;6.10;;;3.28;;
29452;SDS011;16424;50.956;5.320;2022-08-21T03:56:41;15.65;;;4.28;;
29452;SDS011;16424;50.956;5.320;2022-08-21T03:59:06;12.20;;;3.88;;
29452;SDS011;16424;50.956;5.320;2022-08-21T04:01:32;11.32;;;3.58;;
29452;SDS011;16424;50.956;5.320;2022-08-21T04:03:59;12.82;;;4.05;;
29452;SDS011;16424;50.956;5.320;2022-08-21T04:06:24;7.70;;;3.60;;
29452;SDS011;16424;50.956;5.320;2022-08-21T04:08:51;8.82;;;4.03;;
29452;SDS011;16424;50.956;5.320;2022-08-21T04:11:18;10.20;;;3.85;;
29452;SDS011;16424;50.956;5.320;2022-08-21T04:13:44;11.70;;;4.00;;
29452;SDS011;16424;50.956;5.320;2022-08-21T04:16:10;9.95;;;3.58;;
29452;SDS011;16424;50.956;5.320;2022-08-21T04:18:36;7.78;;;3.50;;
29452;SDS011;16424;50.956;5.320;2022-08-21T04:21:02;11.10;;;3.42;;
29452;SDS011;16424;50.956;5.320;2022-08-21T04:23:28;10.88;;;3.63;;
29452;SDS011;16424;50.956;5.320;2022-08-21T04:25:55;10.02;;;3.80;;
29452;SDS011;16424;50.956;5.320;2022-08-21T04:28:22;13.07;;;3.70;;
29452;SDS011;16424;50.956;5.320;2022-08-21T04:30:50;8.70;;;3.80;;
29452;SDS011;16424;50.956;5.320;2022-08-21T04:33:17;12.82;;;4.00;;
29452;SDS011;16424;50.956;5.320;2022-08-21T04:35:43;9.25;;;3.70;;
29452;SDS011;16424;50.956;5.320;2022-08-21T04:38:08;8.52;;;3.80;;
29452;SDS011;16424;50.956;5.320;2022-08-21T04:40:35;15.23;;;3.80;;
29452;SDS011;16424;50.956;5.320;2022-08-21T04:43:03;12.60;;;3.22;;
29452;SDS011;16424;50.956;5.320;2022-08-21T04:45:31;6.82;;;3.00;;
29452;SDS011;16424;50.956;5.320;2022-08-21T04:48:03;13.65;;;3.35;;
29452;SDS011;16424;50.956;5.320;2022-08-21T04:50:48;14.15;;;3.95;;
29452;SDS011;16424;50.956;5.320;2022-08-21T04:53:35;8.20;;;3.13;;
29452;SDS011;16424;50.956;5.320;2022-08-21T04:56:19;9.07;;;3.65;;
29452;SDS011;16424;50.956;5.320;2022-08-21T04:58:48;10.52;;;3.53;;
29452;SDS011;16424;50.956;5.320;2022-08-21T05:01:17;10.45;;;3.10;;
29452;SDS011;16424;50.956;5.320;2022-08-21T05:03:47;6.75;;;3.03;;
29452;SDS011;16424;50.956;5.320;2022-08-21T05:06:14;8.57;;;3.83;;
29452;SDS011;16424;50.956;5.320;2022-08-21T05:08:41;7.68;;;2.70;;
29452;SDS011;16424;50.956;5.320;2022-08-21T05:11:11;7.97;;;2.92;;
29452;SDS011;16424;50.956;5.320;2022-08-21T05:13:36;13.10;;;2.90;;
29452;SDS011;16424;50.956;5.320;2022-08-21T05:16:02;8.05;;;2.60;;
29452;SDS011;16424;50.956;5.320;2022-08-21T05:18:28;8.63;;;2.45;;
29452;SDS011;16424;50.956;5.320;2022-08-21T05:20:54;8.63;;;2.58;;
29452;SDS011;16424;50.956;5.320;2022-08-21T05:23:19;10.02;;;2.33;;
29452;SDS011;16424;50.956;5.320;2022-08-21T05:25:45;8.07;;;1.73;;
29452;SDS011;16424;50.956;5.320;2022-08-21T05:28:11;7.35;;;2.10;;
29452;SDS011;16424;50.956;5.320;2022-08-21T05:30:37;7.95;;;2.65;;
29452;SDS011;16424;50.956;5.320;2022-08-21T05:33:04;5.70;;;2.22;;
29452;SDS011;16424;50.956;5.320;2022-08-21T05:35:31;6.63;;;2.13;;
29452;SDS011;16424;50.956;5.320;2022-08-21T05:37:57;4.53;;;1.60;;
29452;SDS011;16424;50.956;5.320;2022-08-21T05:40:25;3.75;;;1.35;;
29452;SDS011;16424;50.956;5.320;2022-08-21T05:42:51;7.90;;;1.70;;
29452;SDS011;16424;50.956;5.320;2022-08-21T05:45:18;6.40;;;1.90;;
29452;SDS011;16424;50.956;5.320;2022-08-21T05:47:44;13.13;;;1.98;;
29452;SDS011;16424;50.956;5.320;2022-08-21T05:50:10;4.88;;;1.48;;
29452;SDS011;16424;50.956;5.320;2022-08-21T05:52:36;5.35;;;1.55;;
29452;SDS011;16424;50.956;5.320;2022-08-21T05:55:02;9.18;;;1.80;;
29452;SDS011;16424;50.956;5.320;2022-08-21T05:57:28;6.10;;;1.98;;
29452;SDS011;16424;50.956;5.320;2022-08-21T05:59:54;7.72;;;2.40;;
29452;SDS011;16424;50.956;5.320;2022-08-21T06:02:20;5.20;;;1.77;;
29452;SDS011;16424;50.956;5.320;2022-08-21T06:04:46;7.68;;;1.98;;
29452;SDS011;16424;50.956;5.320;2022-08-21T06:07:13;6.88;;;1.65;;
29452;SDS011;16424;50.956;5.320;2022-08-21T06:09:39;7.93;;;2.35;;
29452;SDS011;16424;50.956;5.320;2022-08-21T06:12:05;6.53;;;2.05;;
29452;SDS011;16424;50.956;5.320;2022-08-21T06:14:33;8.75;;;2.67;;
29452;SDS011;16424;50.956;5.320;2022-08-21T06:17:06;8.70;;;2.22;;
29452;SDS011;16424;50.956;5.320;2022-08-21T06:19:34;6.45;;;1.98;;
29452;SDS011;16424;50.956;5.320;2022-08-21T06:22:00;6.78;;;1.83;;
29452;SDS011;16424;50.956;5.320;2022-08-21T06:24:26;5.97;;;1.73;;
29452;SDS011;16424;50.956;5.320;2022-08-21T06:26:52;7.82;;;1.80;;
29452;SDS011;16424;50.956;5.320;2022-08-21T06:29:19;5.63;;;2.33;;
29452;SDS011;16424;50.956;5.320;2022-08-21T06:31:46;7.40;;;2.38;;
29452;SDS011;16424;50.956;5.320;2022-08-21T06:34:12;9.52;;;2.30;;
29452;SDS011;16424;50.956;5.320;2022-08-21T06:36:38;8.38;;;2.50;;
29452;SDS011;16424;50.956;5.320;2022-08-21T06:39:04;8.00;;;2.05;;
29452;SDS011;16424;50.956;5.320;2022-08-21T06:41:30;6.00;;;1.90;;
29452;SDS011;16424;50.956;5.320;2022-08-21T06:43:57;5.28;;;1.83;;
29452;SDS011;16424;50.956;5.320;2022-08-21T06:46:23;8.45;;;2.35;;
29452;SDS011;16424;50.956;5.320;2022-08-21T06:48:51;6.93;;;2.00;;
29452;SDS011;16424;50.956;5.320;2022-08-21T06:51:17;5.32;;;1.88;;
29452;SDS011;16424;50.956;5.320;2022-08-21T06:53:43;8.45;;;1.90;;
29452;SDS011;16424;50.956;5.320;2022-08-21T06:56:09;8.10;;;2.30;;
29452;SDS011;16424;50.956;5.320;2022-08-21T06:58:35;5.28;;;1.67;;
29452;SDS011;16424;50.956;5.320;2022-08-21T07:01:01;7.00;;;1.60;;
29452;SDS011;16424;50.956;5.320;2022-08-21T07:03:29;8.18;;;3.10;;
29452;SDS011;16424;50.956;5.320;2022-08-21T07:05:57;8.57;;;1.98;;
29452;SDS011;16424;50.956;5.320;2022-08-21T07:08:23;8.13;;;1.55;;
29452;SDS011;16424;50.956;5.320;2022-08-21T07:10:50;4.35;;;1.25;;
29452;SDS011;16424;50.956;5.320;2022-08-21T07:13:17;5.93;;;1.77;;
29452;SDS011;16424;50.956;5.320;2022-08-21T07:15:43;7.50;;;2.13;;
29452;SDS011;16424;50.956;5.320;2022-08-21T07:18:09;6.15;;;1.60;;
29452;SDS011;16424;50.956;5.320;2022-08-21T07:20:36;7.22;;;1.50;;
29452;SDS011;16424;50.956;5.320;2022-08-21T07:23:03;10.00;;;1.63;;
29452;SDS011;16424;50.956;5.320;2022-08-21T07:25:32;7.00;;;1.85;;
29452;SDS011;16424;50.956;5.320;2022-08-21T07:27:58;6.95;;;1.90;;
29452;SDS011;16424;50.956;5.320;2022-08-21T07:30:24;5.40;;;1.60;;
29452;SDS011;16424;50.956;5.320;2022-08-21T07:32:50;5.55;;;1.55;;
29452;SDS011;16424;50.956;5.320;2022-08-21T07:35:19;7.07;;;1.70;;
29452;SDS011;16424;50.956;5.320;2022-08-21T07:37:46;5.55;;;1.40;;
29452;SDS011;16424;50.956;5.320;2022-08-21T07:40:12;7.53;;;1.33;;
29452;SDS011;16424;50.956;5.320;2022-08-21T07:42:41;6.63;;;1.50;;
29452;SDS011;16424;50.956;5.320;2022-08-21T07:45:08;8.52;;;1.90;;
29452;SDS011;16424;50.956;5.320;2022-08-21T07:47:35;10.50;;;1.58;;
29452;SDS011;16424;50.956;5.320;2022-08-21T07:50:00;9.40;;;2.00;;
29452;SDS011;16424;50.956;5.320;2022-08-21T07:52:26;8.00;;;1.95;;
29452;SDS011;16424;50.956;5.320;2022-08-21T07:54:52;7.30;;;1.50;;
29452;SDS011;16424;50.956;5.320;2022-08-21T07:57:18;6.20;;;1.58;;
29452;SDS011;16424;50.956;5.320;2022-08-21T07:59:43;11.02;;;2.40;;
29452;SDS011;16424;50.956;5.320;2022-08-21T08:02:09;5.72;;;1.45;;
29452;SDS011;16424;50.956;5.320;2022-08-21T08:04:35;4.78;;;1.30;;
29452;SDS011;16424;50.956;5.320;2022-08-21T08:07:00;9.32;;;1.98;;
29452;SDS011;16424;50.956;5.320;2022-08-21T08:09:26;6.18;;;1.85;;
29452;SDS011;16424;50.956;5.320;2022-08-21T08:11:52;5.85;;;1.45;;
29452;SDS011;16424;50.956;5.320;2022-08-21T08:14:17;6.55;;;1.77;;
29452;SDS011;16424;50.956;5.320;2022-08-21T08:16:43;7.45;;;1.95;;
29452;SDS011;16424;50.956;5.320;2022-08-21T08:19:09;8.55;;;1.55;;
29452;SDS011;16424;50.956;5.320;2022-08-21T08:21:35;5.93;;;1.73;;
29452;SDS011;16424;50.956;5.320;2022-08-21T08:24:02;7.20;;;2.10;;
29452;SDS011;16424;50.956;5.320;2022-08-21T08:26:28;4.53;;;1.65;;
29452;SDS011;16424;50.956;5.320;2022-08-21T08:28:54;4.45;;;1.65;;
29452;SDS011;16424;50.956;5.320;2022-08-21T08:31:19;6.65;;;1.60;;
29452;SDS011;16424;50.956;5.320;2022-08-21T08:33:45;7.32;;;2.40;;
29452;SDS011;16424;50.956;5.320;2022-08-21T08:36:15;7.32;;;1.75;;
29452;SDS011;16424;50.956;5.320;2022-08-21T08:38:42;5.75;;;1.70;;
29452;SDS011;16424;50.956;5.320;2022-08-21T08:41:16;9.80;;;2.33;;
29452;SDS011;16424;50.956;5.320;2022-08-21T08:43:51;10.18;;;1.52;;
29452;SDS011;16424;50.956;5.320;2022-08-21T08:46:20;6.95;;;1.63;;
29452;SDS011;16424;50.956;5.320;2022-08-21T08:48:56;6.88;;;1.70;;
29452;SDS011;16424;50.956;5.320;2022-08-21T08:51:47;8.82;;;1.40;;
29452;SDS011;16424;50.956;5.320;2022-08-21T08:57:39;5.35;;;1.10;;
29452;SDS011;16424;50.956;5.320;2022-08-21T09:00:11;6.53;;;1.00;;
29452;SDS011;16424;50.956;5.320;2022-08-21T09:02:40;6.88;;;1.05;;
29452;SDS011;16424;50.956;5.320;2022-08-21T09:05:08;7.30;;;1.35;;
29452;SDS011;16424;50.956;5.320;2022-08-21T09:07:47;2.75;;;0.98;;
29452;SDS011;16424;50.956;5.320;2022-08-21T09:24:17;3.33;;;1.02;;
29452;SDS011;16424;50.956;5.320;2022-08-21T09:27:06;2.67;;;0.70;;
29452;SDS011;16424;50.956;5.320;2022-08-21T09:29:37;4.50;;;1.08;;
29452;SDS011;16424;50.956;5.320;2022-08-21T09:32:10;6.07;;;1.42;;
29452;SDS011;16424;50.956;5.320;2022-08-21T09:34:41;6.60;;;1.15;;
29452;SDS011;16424;50.956;5.320;2022-08-21T09:37:16;7.10;;;1.52;;
29452;SDS011;16424;50.956;5.320;2022-08-21T09:39:43;3.50;;;0.80;;
29452;SDS011;16424;50.956;5.320;2022-08-21T09:42:09;6.68;;;1.23;;
29452;SDS011;16424;50.956;5.320;2022-08-21T09:44:37;3.90;;;1.10;;
29452;SDS011;16424;50.956;5.320;2022-08-21T09:47:06;7.60;;;1.15;;
29452;SDS011;16424;50.956;5.320;2022-08-21T09:49:34;5.15;;;0.82;;
29452;SDS011;16424;50.956;5.320;2022-08-21T09:52:01;4.90;;;0.77;;
29452;SDS011;16424;50.956;5.320;2022-08-21T09:54:38;2.88;;;0.60;;
29452;SDS011;16424;50.956;5.320;2022-08-21T09:59:52;5.72;;;1.98;;
29452;SDS011;16424;50.956;5.320;2022-08-21T10:02:26;3.92;;;1.35;;
29452;SDS011;16424;50.956;5.320;2022-08-21T10:05:02;7.00;;;1.15;;
29452;SDS011;16424;50.956;5.320;2022-08-21T10:07:36;5.78;;;1.00;;
29452;SDS011;16424;50.956;5.320;2022-08-21T10:10:07;2.53;;;0.93;;
29452;SDS011;16424;50.956;5.320;2022-08-21T10:12:38;3.33;;;1.00;;
29452;SDS011;16424;50.956;5.320;2022-08-21T10:15:28;5.90;;;1.10;;
29452;SDS011;16424;50.956;5.320;2022-08-21T10:26:35;3.90;;;1.00;;
29452;SDS011;16424;50.956;5.320;2022-08-21T10:44:05;5.18;;;1.23;;
29452;SDS011;16424;50.956;5.320;2022-08-21T10:55:02;8.50;;;1.38;;
29452;SDS011;16424;50.956;5.320;2022-08-21T11:00:20;5.00;;;1.75;;
29452;SDS011;16424;50.956;5.320;2022-08-21T11:05:31;7.10;;;1.50;;
29452;SDS011;16424;50.956;5.320;2022-08-21T11:08:09;5.40;;;1.20;;
29452;SDS011;16424;50.956;5.320;2022-08-21T11:18:39;10.43;;;1.77;;
29452;SDS011;16424;50.956;5.320;2022-08-21T11:30:03;10.25;;;1.95;;
29452;SDS011;16424;50.956;5.320;2022-08-21T11:35:40;6.38;;;1.20;;
29452;SDS011;16424;50.956;5.320;2022-08-21T11:38:22;6.95;;;1.48;;
29452;SDS011;16424;50.956;5.320;2022-08-21T11:43:59;7.75;;;1.58;;
29452;SDS011;16424;50.956;5.320;2022-08-21T11:46:56;8.57;;;1.07;;
29452;SDS011;16424;50.956;5.320;2022-08-21T11:52:21;7.25;;;1.60;;
29452;SDS011;16424;50.956;5.320;2022-08-21T12:00:16;8.63;;;2.08;;
29452;SDS011;16424;50.956;5.320;2022-08-21T12:02:45;5.63;;;1.55;;
29452;SDS011;16424;50.956;5.320;2022-08-21T12:08:03;7.35;;;1.73;;
29452;SDS011;16424;50.956;5.320;2022-08-21T12:10:39;5.32;;;1.33;;
29452;SDS011;16424;50.956;5.320;2022-08-21T12:13:26;4.53;;;1.40;;
29452;SDS011;16424;50.956;5.320;2022-08-21T12:16:14;7.15;;;1.30;;
29452;SDS011;16424;50.956;5.320;2022-08-21T12:19:02;7.63;;;1.58;;
29452;SDS011;16424;50.956;5.320;2022-08-21T12:21:33;6.20;;;1.33;;
29452;SDS011;16424;50.956;5.320;2022-08-21T12:26:54;9.00;;;1.30;;
29452;SDS011;16424;50.956;5.320;2022-08-21T12:29:25;8.30;;;1.35;;
29452;SDS011;16424;50.956;5.320;2022-08-21T12:35:17;6.65;;;1.33;;
29452;SDS011;16424;50.956;5.320;2022-08-21T12:40:23;6.00;;;1.75;;
29452;SDS011;16424;50.956;5.320;2022-08-21T12:42:54;7.65;;;1.48;;
29452;SDS011;16424;50.956;5.320;2022-08-21T12:45:26;6.78;;;1.58;;
29452;SDS011;16424;50.956;5.320;2022-08-21T12:48:00;3.88;;;0.95;;
29452;SDS011;16424;50.956;5.320;2022-08-21T12:56:09;7.55;;;1.40;;
29452;SDS011;16424;50.956;5.320;2022-08-21T12:58:47;6.78;;;1.23;;
29452;SDS011;16424;50.956;5.320;2022-08-21T13:01:29;5.53;;;1.15;;
29452;SDS011;16424;50.956;5.320;2022-08-21T13:04:16;5.22;;;0.98;;
29452;SDS011;16424;50.956;5.320;2022-08-21T13:06:49;4.38;;;1.17;;
29452;SDS011;16424;50.956;5.320;2022-08-21T13:09:19;7.57;;;1.55;;
29452;SDS011;16424;50.956;5.320;2022-08-21T13:11:49;5.07;;;1.20;;
29452;SDS011;16424;50.956;5.320;2022-08-21T13:14:35;11.68;;;1.83;;
29452;SDS011;16424;50.956;5.320;2022-08-21T13:17:05;7.03;;;1.67;;
29452;SDS011;16424;50.956;5.320;2022-08-21T13:19:32;8.05;;;1.50;;
29452;SDS011;16424;50.956;5.320;2022-08-21T13:21:59;11.48;;;2.33;;
29452;SDS011;16424;50.956;5.320;2022-08-21T13:24:29;5.65;;;1.33;;
29452;SDS011;16424;50.956;5.320;2022-08-21T13:27:00;10.32;;;1.83;;
29452;SDS011;16424;50.956;5.320;2022-08-21T13:29:33;7.35;;;1.60;;
29452;SDS011;16424;50.956;5.320;2022-08-21T13:32:03;11.90;;;1.83;;
29452;SDS011;16424;50.956;5.320;2022-08-21T13:34:33;7.55;;;1.50;;
29452;SDS011;16424;50.956;5.320;2022-08-21T13:37:02;9.43;;;1.55;;
29452;SDS011;16424;50.956;5.320;2022-08-21T13:39:30;10.70;;;2.50;;
29452;SDS011;16424;50.956;5.320;2022-08-21T13:41:58;5.57;;;1.60;;
29452;SDS011;16424;50.956;5.320;2022-08-21T13:46:55;6.90;;;1.23;;
29452;SDS011;16424;50.956;5.320;2022-08-21T13:49:45;9.40;;;2.25;;
29452;SDS011;16424;50.956;5.320;2022-08-21T13:52:15;6.28;;;1.55;;
29452;SDS011;16424;50.956;5.320;2022-08-21T13:54:43;6.22;;;1.45;;
29452;SDS011;16424;50.956;5.320;2022-08-21T13:57:23;7.03;;;1.55;;
29452;SDS011;16424;50.956;5.320;2022-08-21T14:00:10;7.50;;;1.65;;
29452;SDS011;16424;50.956;5.320;2022-08-21T14:02:45;5.47;;;1.23;;
29452;SDS011;16424;50.956;5.320;2022-08-21T14:05:36;6.28;;;1.23;;
29452;SDS011;16424;50.956;5.320;2022-08-21T14:08:10;5.75;;;1.45;;
29452;SDS011;16424;50.956;5.320;2022-08-21T14:10:42;7.90;;;1.50;;
29452;SDS011;16424;50.956;5.320;2022-08-21T14:13:45;6.32;;;1.55;;
29452;SDS011;16424;50.956;5.320;2022-08-21T14:16:20;6.15;;;1.90;;
29452;SDS011;16424;50.956;5.320;2022-08-21T14:18:52;8.20;;;2.13;;
29452;SDS011;16424;50.956;5.320;2022-08-21T14:24:03;3.72;;;1.50;;
29452;SDS011;16424;50.956;5.320;2022-08-21T14:26:29;6.15;;;1.40;;
29452;SDS011;16424;50.956;5.320;2022-08-21T14:28:58;7.07;;;1.17;;
29452;SDS011;16424;50.956;5.320;2022-08-21T14:31:27;5.93;;;1.40;;
29452;SDS011;16424;50.956;5.320;2022-08-21T14:33:55;2.65;;;1.10;;
29452;SDS011;16424;50.956;5.320;2022-08-21T14:36:21;6.32;;;1.38;;
29452;SDS011;16424;50.956;5.320;2022-08-21T14:38:46;9.07;;;2.17;;
29452;SDS011;16424;50.956;5.320;2022-08-21T14:41:17;7.72;;;1.50;;
29452;SDS011;16424;50.956;5.320;2022-08-21T14:43:45;7.75;;;2.08;;
29452;SDS011;16424;50.956;5.320;2022-08-21T14:46:12;5.60;;;1.40;;
29452;SDS011;16424;50.956;5.320;2022-08-21T14:48:44;7.72;;;1.65;;
29452;SDS011;16424;50.956;5.320;2022-08-21T14:51:11;7.05;;;1.95;;
29452;SDS011;16424;50.956;5.320;2022-08-21T14:53:37;5.38;;;1.05;;
29452;SDS011;16424;50.956;5.320;2022-08-21T14:56:03;8.05;;;1.38;;
29452;SDS011;16424;50.956;5.320;2022-08-21T14:58:36;5.53;;;1.30;;
29452;SDS011;16424;50.956;5.320;2022-08-21T15:01:04;5.45;;;1.27;;
29452;SDS011;16424;50.956;5.320;2022-08-21T15:03:34;6.10;;;1.60;;
29452;SDS011;16424;50.956;5.320;2022-08-21T15:06:00;6.43;;;1.48;;
29452;SDS011;16424;50.956;5.320;2022-08-21T15:08:26;5.68;;;1.08;;
29452;SDS011;16424;50.956;5.320;2022-08-21T15:10:52;5.32;;;1.20;;
29452;SDS011;16424;50.956;5.320;2022-08-21T15:13:18;4.53;;;1.30;;
29452;SDS011;16424;50.956;5.320;2022-08-21T15:15:45;6.88;;;1.73;;
29452;SDS011;16424;50.956;5.320;2022-08-21T15:18:13;11.55;;;2.45;;
29452;SDS011;16424;50.956;5.320;2022-08-21T15:20:39;5.40;;;1.20;;
29452;SDS011;16424;50.956;5.320;2022-08-21T15:23:05;5.85;;;1.45;;
29452;SDS011;16424;50.956;5.320;2022-08-21T15:25:33;8.52;;;1.83;;
29452;SDS011;16424;50.956;5.320;2022-08-21T15:28:00;6.15;;;1.88;;
29452;SDS011;16424;50.956;5.320;2022-08-21T15:30:27;7.47;;;1.27;;
29452;SDS011;16424;50.956;5.320;2022-08-21T15:32:55;6.38;;;1.00;;
29452;SDS011;16424;50.956;5.320;2022-08-21T15:35:21;7.13;;;1.45;;
29452;SDS011;16424;50.956;5.320;2022-08-21T15:37:46;8.20;;;1.95;;
29452;SDS011;16424;50.956;5.320;2022-08-21T15:40:12;7.25;;;1.63;;
29452;SDS011;16424;50.956;5.320;2022-08-21T15:42:39;7.65;;;1.80;;
29452;SDS011;16424;50.956;5.320;2022-08-21T15:45:06;6.78;;;1.48;;
29452;SDS011;16424;50.956;5.320;2022-08-21T15:47:33;8.38;;;1.90;;
29452;SDS011;16424;50.956;5.320;2022-08-21T15:50:02;5.75;;;1.50;;
29452;SDS011;16424;50.956;5.320;2022-08-21T15:52:29;5.57;;;1.30;;
29452;SDS011;16424;50.956;5.320;2022-08-21T15:54:54;6.43;;;2.13;;
29452;SDS011;16424;50.956;5.320;2022-08-21T15:57:21;9.25;;;1.60;;
29452;SDS011;16424;50.956;5.320;2022-08-21T15:59:49;5.75;;;1.23;;
29452;SDS011;16424;50.956;5.320;2022-08-21T16:02:20;8.55;;;1.60;;
29452;SDS011;16424;50.956;5.320;2022-08-21T16:04:49;12.27;;;1.77;;
29452;SDS011;16424;50.956;5.320;2022-08-21T16:07:15;5.72;;;1.17;;
29452;SDS011;16424;50.956;5.320;2022-08-21T16:09:41;6.85;;;1.52;;
29452;SDS011;16424;50.956;5.320;2022-08-21T16:12:06;9.18;;;1.30;;
29452;SDS011;16424;50.956;5.320;2022-08-21T16:14:35;9.25;;;1.35;;
29452;SDS011;16424;50.956;5.320;2022-08-21T16:17:03;7.22;;;1.63;;
29452;SDS011;16424;50.956;5.320;2022-08-21T16:19:32;6.85;;;1.98;;
29452;SDS011;16424;50.956;5.320;2022-08-21T16:21:59;11.05;;;1.88;;
29452;SDS011;16424;50.956;5.320;2022-08-21T16:24:25;3.75;;;1.05;;
29452;SDS011;16424;50.956;5.320;2022-08-21T16:26:51;6.28;;;1.48;;
29452;SDS011;16424;50.956;5.320;2022-08-21T16:29:17;5.70;;;1.58;;
29452;SDS011;16424;50.956;5.320;2022-08-21T16:31:43;5.65;;;1.20;;
29452;SDS011;16424;50.956;5.320;2022-08-21T16:34:11;6.85;;;1.85;;
29452;SDS011;16424;50.956;5.320;2022-08-21T16:36:40;6.60;;;1.45;;
29452;SDS011;16424;50.956;5.320;2022-08-21T16:39:05;13.35;;;1.75;;
29452;SDS011;16424;50.956;5.320;2022-08-21T16:41:32;9.65;;;1.60;;
29452;SDS011;16424;50.956;5.320;2022-08-21T16:44:00;9.70;;;2.47;;
29452;SDS011;16424;50.956;5.320;2022-08-21T16:46:27;9.60;;;2.13;;